M/y Voyager — HO3191 — position and weather

sailwx.info

Track history (hours):
 
Tides and Currents Weather Stations Pressure Air Temp Water Temp Dewpoint Dewpoint Depression Visibility Wind Speed Wind Dir Waves Ship Positions

M/y Voyager

Last reported at 2017-Aug-30 19:31 UTC. Time now 2017-Sep-23 07:45 UTC.
Position N 37°56' E 023°39'.
Warning: this ship's position is 23 days out of date.

Length 61 m.

Type: Other ship. MMSI: 353270000.

Date/timePositionNaut miles runAvg speedWind from/ knotsBaromVisibWave heightAir tempDewpointWater temp
2017-Aug-30 19:31N 37°56' E 023°39'0 0.7
2017-Aug-30 19:30N 37°56' E 023°39'0 0.0
2017-Aug-30 19:00N 37°56' E 023°39'0 0.0
2017-Aug-30 18:30N 37°56' E 023°39'0 0.0
2017-Aug-30 18:01N 37°56' E 023°39'0 0.0
2017-Aug-30 17:31N 37°56' E 023°39'0 0.0
2017-Aug-30 17:00N 37°56' E 023°39'0 0.0
2017-Aug-30 16:30N 37°56' E 023°39'0 0.0
2017-Aug-30 16:00N 37°56' E 023°39'0 0.0
2017-Aug-30 15:30N 37°56' E 023°39'0 0.0
2017-Aug-30 15:00N 37°56' E 023°39'0 0.0
2017-Aug-30 14:30N 37°56' E 023°39'0 0.0
2017-Aug-30 14:00N 37°56' E 023°39'0 0.0
2017-Aug-30 13:30N 37°56' E 023°39'0 0.0
2017-Aug-30 13:00N 37°56' E 023°39'0 0.0
2017-Aug-30 12:30N 37°56' E 023°39'0 0.0
2017-Aug-30 12:01N 37°56' E 023°39'0 0.0
2017-Aug-30 11:30N 37°56' E 023°39'0 0.0
2017-Aug-30 11:00N 37°56' E 023°39'0 0.0
2017-Aug-30 10:30N 37°56' E 023°39'0 0.2
2017-Aug-30 10:00N 37°56' E 023°39'0 0.0
2017-Aug-30 09:30N 37°56' E 023°39'0 0.0
2017-Aug-30 09:00N 37°56' E 023°39'0 0.0
2017-Aug-30 08:31N 37°56' E 023°39'0 0.0
2017-Aug-30 08:00N 37°56' E 023°39'0 0.0
2017-Aug-30 07:30N 37°56' E 023°39'0 0.0
2017-Aug-30 07:00N 37°56' E 023°39'0 0.0
2017-Aug-30 06:30N 37°56' E 023°39'0 0.0
2017-Aug-30 06:00N 37°56' E 023°39'0 0.0
2017-Aug-30 05:30N 37°56' E 023°39'0 0.0
2017-Aug-30 05:00N 37°56' E 023°39'0 0.0
2017-Aug-30 04:30N 37°56' E 023°39'0 0.0
2017-Aug-30 04:00N 37°56' E 023°39'0 0.0
2017-Aug-30 03:30N 37°56' E 023°39'0 0.0
2017-Aug-30 03:00N 37°56' E 023°39'0 0.0
2017-Aug-30 02:30N 37°56' E 023°39'0 0.0
2017-Aug-30 02:00N 37°56' E 023°39'0 0.0
2017-Aug-30 01:30N 37°56' E 023°39'0 0.0
2017-Aug-30 01:00N 37°56' E 023°39'0 0.0
2017-Aug-30 00:30N 37°56' E 023°39'0 0.0
2017-Aug-30 00:00N 37°56' E 023°39'0 0.0
2017-Aug-29 23:30N 37°56' E 023°39'0 0.0
2017-Aug-29 23:00N 37°56' E 023°39'0 0.0
2017-Aug-29 22:30N 37°56' E 023°39'0 0.0
2017-Aug-29 22:00N 37°56' E 023°39'0 0.0
2017-Aug-29 21:30N 37°56' E 023°39'0 0.0
2017-Aug-29 21:00N 37°56' E 023°39'0 0.0
2017-Aug-29 20:30N 37°56' E 023°39'0 0.0
2017-Aug-29 20:00N 37°56' E 023°39'0 0.0
2017-Aug-29 19:30N 37°56' E 023°39'0 0.0
2017-Aug-29 19:00N 37°56' E 023°39'0 0.0
2017-Aug-29 18:30N 37°56' E 023°39'0 0.0
2017-Aug-29 18:00N 37°56' E 023°39'0 0.1
2017-Aug-29 17:30N 37°56' E 023°39'1 2.0
2017-Aug-29 17:00N 37°55' E 023°39'510.7
2017-Aug-29 16:30N 37°50' E 023°37'510.6
2017-Aug-29 16:00N 37°45' E 023°35'510.5
2017-Aug-29 15:30N 37°40' E 023°34'510.4
2017-Aug-29 15:00N 37°34' E 023°34'710.9
2017-Aug-29 14:22N 37°27' E 023°34'7 2.2
2017-Aug-29 11:01N 37°21' E 023°29'0 4.5
2017-Aug-29 10:57N 37°21' E 023°28'  
2017-Aug-25 07:02N 37°18' E 023°22'010.2
2017-Aug-25 07:00N 37°18' E 023°21'17 9.0
2017-Aug-25 05:09N 37°33' E 023°31'210.9
2017-Aug-25 05:00N 37°35' E 023°29'510.8
2017-Aug-25 04:30N 37°40' E 023°27'4 0.6
2017-Aug-24 22:51N 37°43' E 023°27'0 0.0
2017-Aug-24 18:27N 37°43' E 023°27'0 0.0
2017-Aug-24 16:27N 37°43' E 023°27'2 0.1
2017-Aug-24 05:55N 37°42' E 023°28'0 0.0
2017-Aug-23 21:45N 37°42' E 023°28'0 0.0
2017-Aug-23 21:29N 37°42' E 023°28'0 0.0
2017-Aug-23 20:49N 37°42' E 023°28'0 0.0
2017-Aug-23 20:21N 37°42' E 023°28'0 0.0
2017-Aug-23 19:43N 37°42' E 023°28'0 0.0
2017-Aug-23 19:22N 37°42' E 023°28'0 0.0
2017-Aug-23 18:57N 37°42' E 023°28'0 0.0
2017-Aug-23 18:22N 37°42' E 023°28'0 0.0
2017-Aug-23 17:53N 37°42' E 023°28'0 0.0
2017-Aug-23 16:27N 37°42' E 023°28'1 2.6
2017-Aug-23 15:59N 37°43' E 023°27'5 9.8
2017-Aug-23 15:30N 37°38' E 023°26'710.1
2017-Aug-23 14:50N 37°33' E 023°31'4 8.6
2017-Aug-23 14:25N 37°30' E 023°29'1 0.1
2017-Aug-23 07:18N 37°30' E 023°28'0 0.0
2017-Aug-23 06:02N 37°30' E 023°28'0 0.5
2017-Aug-23 05:59N 37°30' E 023°28'9 2.3
2017-Aug-23 01:58N 37°21' E 023°27'0 0.0
2017-Aug-23 01:04N 37°21' E 023°27'0 0.1
2017-Aug-23 00:52N 37°21' E 023°27'0 0.0
2017-Aug-23 00:22N 37°21' E 023°27'0 0.0
2017-Aug-22 23:52N 37°21' E 023°27'0 0.0
2017-Aug-22 23:22N 37°21' E 023°27'0 0.0
2017-Aug-22 22:49N 37°21' E 023°27'0 0.0
2017-Aug-22 22:22N 37°21' E 023°27'0 0.0
2017-Aug-22 21:46N 37°21' E 023°27'0 0.1
2017-Aug-22 21:22N 37°21' E 023°27'0 0.0
2017-Aug-22 20:46N 37°21' E 023°27'0 0.0
2017-Aug-22 20:28N 37°21' E 023°27'0 0.0
2017-Aug-22 19:52N 37°21' E 023°27'0 0.0
2017-Aug-22 19:25N 37°21' E 023°27'0 0.0
2017-Aug-22 18:49N 37°21' E 023°27'0 0.0
2017-Aug-22 18:28N 37°21' E 023°27'0 0.0
2017-Aug-22 17:52N 37°21' E 023°27'0 0.0
2017-Aug-22 17:28N 37°21' E 023°27'0 0.0
2017-Aug-22 16:46N 37°21' E 023°27'0 0.0
2017-Aug-22 16:18N 37°21' E 023°27'2 5.1
2017-Aug-22 16:00N 37°21' E 023°25'9 0.2
2017-Aug-21 03:23N 37°14' E 023°33'410.9
2017-Aug-21 03:00N 37°14' E 023°38'510.7
2017-Aug-21 02:30N 37°14' E 023°45'511.0
2017-Aug-21 02:00N 37°15' E 023°52'4511.3
2017-Aug-20 21:59N 37°13' E 024°49'611.8
2017-Aug-20 21:30N 37°13' E 024°56'611.5
2017-Aug-20 21:00N 37°12' E 025°03'511.0
2017-Aug-20 20:31N 37°11' E 025°10'611.3
2017-Aug-20 20:00N 37°10' E 025°17'  
Track history (hours):
 
Tides and Currents Weather Stations Pressure Air Temp Water Temp Dewpoint Dewpoint Depression Visibility Wind Speed Wind Dir Waves Ship Positions

M/y Voyager

Last reported at 2017-Aug-30 19:31 UTC. Time now 2017-Sep-23 07:45 UTC.
Position N 37°56' E 023°39'.
Warning: this ship's position is 23 days out of date.

Length 61 m.

Type: Other ship. MMSI: 353270000.

Date/timePositionNaut miles runAvg speedWind from/ knotsBaromVisibWave heightAir tempDewpointWater temp
2017-Aug-30 19:31N 37°56' E 023°39'0 0.7
2017-Aug-30 19:30N 37°56' E 023°39'0 0.0
2017-Aug-30 19:00N 37°56' E 023°39'0 0.0
2017-Aug-30 18:30N 37°56' E 023°39'0 0.0
2017-Aug-30 18:01N 37°56' E 023°39'0 0.0
2017-Aug-30 17:31N 37°56' E 023°39'0 0.0
2017-Aug-30 17:00N 37°56' E 023°39'0 0.0
2017-Aug-30 16:30N 37°56' E 023°39'0 0.0
2017-Aug-30 16:00N 37°56' E 023°39'0 0.0
2017-Aug-30 15:30N 37°56' E 023°39'0 0.0
2017-Aug-30 15:00N 37°56' E 023°39'0 0.0
2017-Aug-30 14:30N 37°56' E 023°39'0 0.0
2017-Aug-30 14:00N 37°56' E 023°39'0 0.0
2017-Aug-30 13:30N 37°56' E 023°39'0 0.0
2017-Aug-30 13:00N 37°56' E 023°39'0 0.0
2017-Aug-30 12:30N 37°56' E 023°39'0 0.0
2017-Aug-30 12:01N 37°56' E 023°39'0 0.0
2017-Aug-30 11:30N 37°56' E 023°39'0 0.0
2017-Aug-30 11:00N 37°56' E 023°39'0 0.0
2017-Aug-30 10:30N 37°56' E 023°39'0 0.2
2017-Aug-30 10:00N 37°56' E 023°39'0 0.0
2017-Aug-30 09:30N 37°56' E 023°39'0 0.0
2017-Aug-30 09:00N 37°56' E 023°39'0 0.0
2017-Aug-30 08:31N 37°56' E 023°39'0 0.0
2017-Aug-30 08:00N 37°56' E 023°39'0 0.0
2017-Aug-30 07:30N 37°56' E 023°39'0 0.0
2017-Aug-30 07:00N 37°56' E 023°39'0 0.0
2017-Aug-30 06:30N 37°56' E 023°39'0 0.0
2017-Aug-30 06:00N 37°56' E 023°39'0 0.0
2017-Aug-30 05:30N 37°56' E 023°39'0 0.0
2017-Aug-30 05:00N 37°56' E 023°39'0 0.0
2017-Aug-30 04:30N 37°56' E 023°39'0 0.0
2017-Aug-30 04:00N 37°56' E 023°39'0 0.0
2017-Aug-30 03:30N 37°56' E 023°39'0 0.0
2017-Aug-30 03:00N 37°56' E 023°39'0 0.0
2017-Aug-30 02:30N 37°56' E 023°39'0 0.0
2017-Aug-30 02:00N 37°56' E 023°39'0 0.0
2017-Aug-30 01:30N 37°56' E 023°39'0 0.0
2017-Aug-30 01:00N 37°56' E 023°39'0 0.0
2017-Aug-30 00:30N 37°56' E 023°39'0 0.0
2017-Aug-30 00:00N 37°56' E 023°39'0 0.0
2017-Aug-29 23:30N 37°56' E 023°39'0 0.0
2017-Aug-29 23:00N 37°56' E 023°39'0 0.0
2017-Aug-29 22:30N 37°56' E 023°39'0 0.0
2017-Aug-29 22:00N 37°56' E 023°39'0 0.0
2017-Aug-29 21:30N 37°56' E 023°39'0 0.0
2017-Aug-29 21:00N 37°56' E 023°39'0 0.0
2017-Aug-29 20:30N 37°56' E 023°39'0 0.0
2017-Aug-29 20:00N 37°56' E 023°39'0 0.0
2017-Aug-29 19:30N 37°56' E 023°39'0 0.0
2017-Aug-29 19:00N 37°56' E 023°39'0 0.0
2017-Aug-29 18:30N 37°56' E 023°39'0 0.0
2017-Aug-29 18:00N 37°56' E 023°39'0 0.1
2017-Aug-29 17:30N 37°56' E 023°39'1 2.0
2017-Aug-29 17:00N 37°55' E 023°39'510.7
2017-Aug-29 16:30N 37°50' E 023°37'510.6
2017-Aug-29 16:00N 37°45' E 023°35'510.5
2017-Aug-29 15:30N 37°40' E 023°34'510.4
2017-Aug-29 15:00N 37°34' E 023°34'710.9
2017-Aug-29 14:22N 37°27' E 023°34'7 2.2
2017-Aug-29 11:01N 37°21' E 023°29'0 4.5
2017-Aug-29 10:57N 37°21' E 023°28'  
2017-Aug-25 07:02N 37°18' E 023°22'010.2
2017-Aug-25 07:00N 37°18' E 023°21'17 9.0
2017-Aug-25 05:09N 37°33' E 023°31'210.9
2017-Aug-25 05:00N 37°35' E 023°29'510.8
2017-Aug-25 04:30N 37°40' E 023°27'4 0.6
2017-Aug-24 22:51N 37°43' E 023°27'0 0.0
2017-Aug-24 18:27N 37°43' E 023°27'0 0.0
2017-Aug-24 16:27N 37°43' E 023°27'2 0.1
2017-Aug-24 05:55N 37°42' E 023°28'0 0.0
2017-Aug-23 21:45N 37°42' E 023°28'0 0.0
2017-Aug-23 21:29N 37°42' E 023°28'0 0.0
2017-Aug-23 20:49N 37°42' E 023°28'0 0.0
2017-Aug-23 20:21N 37°42' E 023°28'0 0.0
2017-Aug-23 19:43N 37°42' E 023°28'0 0.0
2017-Aug-23 19:22N 37°42' E 023°28'0 0.0
2017-Aug-23 18:57N 37°42' E 023°28'0 0.0
2017-Aug-23 18:22N 37°42' E 023°28'0 0.0
2017-Aug-23 17:53N 37°42' E 023°28'0 0.0
2017-Aug-23 16:27N 37°42' E 023°28'1 2.6
2017-Aug-23 15:59N 37°43' E 023°27'5 9.8
2017-Aug-23 15:30N 37°38' E 023°26'710.1
2017-Aug-23 14:50N 37°33' E 023°31'4 8.6
2017-Aug-23 14:25N 37°30' E 023°29'1 0.1
2017-Aug-23 07:18N 37°30' E 023°28'0 0.0
2017-Aug-23 06:02N 37°30' E 023°28'0 0.5
2017-Aug-23 05:59N 37°30' E 023°28'9 2.3
2017-Aug-23 01:58N 37°21' E 023°27'0 0.0
2017-Aug-23 01:04N 37°21' E 023°27'0 0.1
2017-Aug-23 00:52N 37°21' E 023°27'0 0.0
2017-Aug-23 00:22N 37°21' E 023°27'0 0.0
2017-Aug-22 23:52N 37°21' E 023°27'0 0.0
2017-Aug-22 23:22N 37°21' E 023°27'0 0.0
2017-Aug-22 22:49N 37°21' E 023°27'0 0.0
2017-Aug-22 22:22N 37°21' E 023°27'0 0.0
2017-Aug-22 21:46N 37°21' E 023°27'0 0.1
2017-Aug-22 21:22N 37°21' E 023°27'0 0.0
2017-Aug-22 20:46N 37°21' E 023°27'0 0.0
2017-Aug-22 20:28N 37°21' E 023°27'0 0.0
2017-Aug-22 19:52N 37°21' E 023°27'0 0.0
2017-Aug-22 19:25N 37°21' E 023°27'0 0.0
2017-Aug-22 18:49N 37°21' E 023°27'0 0.0
2017-Aug-22 18:28N 37°21' E 023°27'0 0.0
2017-Aug-22 17:52N 37°21' E 023°27'0 0.0
2017-Aug-22 17:28N 37°21' E 023°27'0 0.0
2017-Aug-22 16:46N 37°21' E 023°27'0 0.0
2017-Aug-22 16:18N 37°21' E 023°27'2 5.1
2017-Aug-22 16:00N 37°21' E 023°25'9 0.2
2017-Aug-21 03:23N 37°14' E 023°33'410.9
2017-Aug-21 03:00N 37°14' E 023°38'510.7
2017-Aug-21 02:30N 37°14' E 023°45'511.0
2017-Aug-21 02:00N 37°15' E 023°52'4511.3
2017-Aug-20 21:59N 37°13' E 024°49'611.8
2017-Aug-20 21:30N 37°13' E 024°56'611.5
2017-Aug-20 21:00N 37°12' E 025°03'511.0
2017-Aug-20 20:31N 37°11' E 025°10'611.3
2017-Aug-20 20:00N 37°10' E 025°17'  

Dump ship's entire track history